createdAt,value
2019-06-07T00:01:20.798Z,6.70
2019-06-07T00:03:49.904Z,7.50
2019-06-07T00:06:24.338Z,7.40
2019-06-07T00:08:50.807Z,7.23
2019-06-07T00:11:20.758Z,7.57
2019-06-07T00:13:50.349Z,8.67
2019-06-07T00:16:23.174Z,8.40
2019-06-07T00:18:51.229Z,8.27
2019-06-07T00:22:11.077Z,8.90
2019-06-07T00:23:53.648Z,8.83
2019-06-07T00:26:23.235Z,9.30
2019-06-07T00:28:52.868Z,8.60
2019-06-07T00:31:24.610Z,8.80
2019-06-07T00:33:53.818Z,9.27
2019-06-07T00:36:23.520Z,9.03
2019-06-07T00:38:53.070Z,8.50
2019-06-07T00:41:22.660Z,9.07
2019-06-07T00:43:52.227Z,9.27
2019-06-07T00:46:25.263Z,8.90
2019-06-07T00:48:53.113Z,10.23
2019-06-07T00:51:24.080Z,9.87
2019-06-07T00:53:53.932Z,9.47
2019-06-07T00:56:23.667Z,8.60
2019-06-07T00:59:10.279Z,9.00
2019-06-07T01:01:25.496Z,8.87
2019-06-07T01:03:55.248Z,9.67
2019-06-07T01:06:25.043Z,9.10
2019-06-07T01:08:54.680Z,9.57
2019-06-07T01:11:26.163Z,8.90
2019-06-07T01:13:55.634Z,8.73
2019-06-07T01:16:26.387Z,8.63
2019-06-07T01:18:57.475Z,8.07
2019-06-07T01:21:29.331Z,8.10
2019-06-07T01:24:11.514Z,8.20
2019-06-07T01:26:30.671Z,8.30
2019-06-07T01:29:00.257Z,8.83
2019-06-07T01:31:31.656Z,8.63
2019-06-07T01:34:01.349Z,8.70
2019-06-07T01:36:31.271Z,7.83
2019-06-07T01:39:00.894Z,7.07
2019-06-07T01:41:30.924Z,7.93
2019-06-07T01:44:00.574Z,7.50
2019-06-07T01:46:30.147Z,8.20
2019-06-07T01:48:59.733Z,7.50
2019-06-07T01:51:30.784Z,8.00
2019-06-07T01:54:48.621Z,8.27
2019-06-07T01:56:31.873Z,8.53
2019-06-07T01:59:01.448Z,7.70
2019-06-07T02:01:35.210Z,8.50
2019-06-07T02:04:03.071Z,8.10
2019-06-07T02:06:32.997Z,8.70
2019-06-07T02:09:03.201Z,8.87
2019-06-07T02:11:33.709Z,7.97
2019-06-07T02:14:04.767Z,9.70
2019-06-07T02:16:34.429Z,7.63
2019-06-07T02:19:04.127Z,7.17
2019-06-07T02:21:34.546Z,7.20
2019-06-07T02:24:04.504Z,7.77
2019-06-07T02:26:34.080Z,7.83
2019-06-07T02:29:03.624Z,7.10
2019-06-07T02:31:39.342Z,7.70
2019-06-07T02:34:04.646Z,8.03
2019-06-07T02:36:41.091Z,8.23
2019-06-07T02:39:08.113Z,8.07
2019-06-07T02:41:40.103Z,7.60
2019-06-07T02:44:09.429Z,7.87
2019-06-07T02:46:46.853Z,7.93
2019-06-07T02:49:10.381Z,7.23
2019-06-07T02:51:41.533Z,7.23
2019-06-07T02:54:11.325Z,7.27
2019-06-07T02:56:56.843Z,7.73
2019-06-07T02:59:12.282Z,7.13
2019-06-07T03:04:27.187Z,7.63
2019-06-07T03:06:59.208Z,6.73
2019-06-07T03:09:32.838Z,7.97
2019-06-07T03:12:03.934Z,6.97
2019-06-07T03:14:36.830Z,7.47
2019-06-07T03:17:10.931Z,8.03
2019-06-07T03:19:45.070Z,7.23
2019-06-07T03:22:14.645Z,6.77
2019-06-07T03:24:45.836Z,6.67
2019-06-07T03:27:34.592Z,5.83
2019-06-07T03:29:47.833Z,6.03
2019-06-07T03:32:17.431Z,5.57
2019-06-07T03:34:46.979Z,5.87
2019-06-07T03:37:16.574Z,5.40
2019-06-07T03:39:46.140Z,4.57
2019-06-07T03:42:15.716Z,4.97
2019-06-07T03:44:45.302Z,5.37
2019-06-07T03:47:14.884Z,5.17
2019-06-07T03:49:44.481Z,4.77
2019-06-07T03:52:14.027Z,5.00
2019-06-07T03:54:43.610Z,5.07
2019-06-07T03:57:13.181Z,5.70
2019-06-07T03:59:42.767Z,5.67
2019-06-07T04:02:12.342Z,5.73
2019-06-07T04:04:41.924Z,5.83
2019-06-07T04:07:11.506Z,8.67
2019-06-07T04:09:43.045Z,6.80
2019-06-07T04:12:12.388Z,8.63
2019-06-07T04:14:42.818Z,8.03
2019-06-07T04:17:12.674Z,7.70
2019-06-07T04:19:43.585Z,8.03
2019-06-07T04:22:13.383Z,7.83
2019-06-07T04:24:42.977Z,7.73
2019-06-07T04:27:12.553Z,7.40
2019-06-07T04:30:05.819Z,7.00
2019-06-07T04:32:13.496Z,7.40
2019-06-07T04:34:43.464Z,6.13
2019-06-07T04:37:14.133Z,5.63
2019-06-07T04:39:45.462Z,6.63
2019-06-07T04:42:17.734Z,7.10
2019-06-07T04:44:50.207Z,6.40
2019-06-07T04:47:20.711Z,5.60
2019-06-07T04:49:51.475Z,6.17
2019-06-07T04:52:21.119Z,6.00
2019-06-07T04:54:50.701Z,6.30
2019-06-07T04:57:20.273Z,6.37
2019-06-07T05:00:22.658Z,6.10
2019-06-07T05:02:21.689Z,6.87
2019-06-07T05:04:51.259Z,6.23
2019-06-07T05:07:20.905Z,7.63
2019-06-07T05:09:50.498Z,8.17
2019-06-07T05:12:20.071Z,8.50
2019-06-07T05:14:49.647Z,9.17
2019-06-07T05:17:19.252Z,8.87
2019-06-07T05:19:51.324Z,8.63
2019-06-07T05:22:22.132Z,8.63
2019-06-07T05:24:51.701Z,8.33
2019-06-07T05:27:21.275Z,8.87
2019-06-07T05:30:08.732Z,8.87
2019-06-07T05:32:22.218Z,8.57
2019-06-07T05:34:51.800Z,9.93
2019-06-07T05:37:21.377Z,8.30
2019-06-07T05:39:50.975Z,10.43
2019-06-07T05:42:20.573Z,10.27
2019-06-07T05:44:50.161Z,10.57
2019-06-07T05:47:19.743Z,10.47
2019-06-07T05:49:49.417Z,10.97
2019-06-07T05:52:18.993Z,11.00
2019-06-07T05:54:48.953Z,12.07
2019-06-07T05:57:18.539Z,11.50
2019-06-07T05:59:49.028Z,11.00
2019-06-07T06:02:23.165Z,11.63
2019-06-07T06:04:49.997Z,9.63
2019-06-07T06:07:19.561Z,10.77
2019-06-07T06:09:50.414Z,9.17
2019-06-07T06:12:34.679Z,10.10
2019-06-07T06:14:53.211Z,9.93
2019-06-07T06:17:23.461Z,10.07
2019-06-07T06:19:53.755Z,10.93
2019-06-07T06:22:23.878Z,10.80
2019-06-07T06:25:29.690Z,9.30
2019-06-07T06:28:03.396Z,11.43
2019-06-07T06:30:00.065Z,9.40
2019-06-07T06:32:42.047Z,10.53
2019-06-07T06:35:02.180Z,11.50
2019-06-07T06:37:31.738Z,10.70
2019-06-07T06:40:01.340Z,8.83
2019-06-07T06:42:30.923Z,10.30
2019-06-07T06:45:00.505Z,9.23
2019-06-07T06:47:30.071Z,8.93
2019-06-07T06:50:01.301Z,8.20
2019-06-07T06:52:30.934Z,8.03
2019-06-07T06:55:01.288Z,8.33
2019-06-07T06:57:31.007Z,9.53
2019-06-07T07:00:00.582Z,6.97
2019-06-07T07:02:30.162Z,7.37
2019-06-07T07:04:59.809Z,7.73
2019-06-07T07:07:30.023Z,8.23
2019-06-07T07:10:00.450Z,7.23
2019-06-07T07:12:30.009Z,6.90
2019-06-07T07:14:59.580Z,7.00
2019-06-07T07:17:47.829Z,6.70
2019-06-07T07:20:00.468Z,7.23
2019-06-07T07:22:31.215Z,7.27
2019-06-07T07:25:00.810Z,7.40
2019-06-07T07:27:30.433Z,8.47
2019-06-07T07:30:34.688Z,7.00
2019-06-07T07:32:31.321Z,6.63
2019-06-07T07:35:01.014Z,6.90
2019-06-07T07:37:30.567Z,6.73
2019-06-07T07:40:09.586Z,6.70
2019-06-07T07:42:31.467Z,5.83
2019-06-07T07:45:01.108Z,7.10
2019-06-07T07:47:30.733Z,6.60
2019-06-07T07:50:00.268Z,6.50
2019-06-07T07:52:29.853Z,6.90
2019-06-07T07:54:59.443Z,6.90
2019-06-07T07:57:29.884Z,7.73
2019-06-07T08:00:36.369Z,5.60
2019-06-07T08:02:30.978Z,5.53
2019-06-07T08:05:28.820Z,7.17
2019-06-07T08:07:32.092Z,6.90
2019-06-07T08:10:04.218Z,6.33
2019-06-07T08:12:55.930Z,7.27
2019-06-07T08:15:08.883Z,7.50
2019-06-07T08:17:38.486Z,6.20
2019-06-07T08:20:10.549Z,6.40
2019-06-07T08:22:40.129Z,6.40
2019-06-07T08:25:10.409Z,6.67
2019-06-07T08:27:40.273Z,7.13
2019-06-07T08:30:46.692Z,6.50
2019-06-07T08:32:44.433Z,6.87
2019-06-07T08:36:02.387Z,6.73
2019-06-07T08:40:20.243Z,7.17
2019-06-07T08:43:11.355Z,6.70
2019-06-07T08:45:23.182Z,6.43
2019-06-07T08:47:58.039Z,6.50
2019-06-07T08:50:26.162Z,6.93
2019-06-07T08:53:02.952Z,6.83
2019-06-07T08:55:27.166Z,6.37
2019-06-07T08:58:02.347Z,6.27
2019-06-07T09:00:45.567Z,5.67
2019-06-07T09:03:06.479Z,6.20
2019-06-07T09:05:31.191Z,6.40
2019-06-07T09:08:23.610Z,5.10
2019-06-07T09:10:34.431Z,5.37
2019-06-07T09:13:10.164Z,6.43
2019-06-07T09:15:35.318Z,5.33
2019-06-07T09:20:49.117Z,6.47
2019-06-07T09:23:19.338Z,4.70
2019-06-07T09:26:01.044Z,5.40
2019-06-07T09:28:22.555Z,5.80
2019-06-07T09:30:52.101Z,5.07
2019-06-07T09:33:21.744Z,4.70
2019-06-07T09:35:51.352Z,5.13
2019-06-07T09:38:26.247Z,5.40
2019-06-07T09:40:52.228Z,5.80
2019-06-07T09:45:53.109Z,5.40
2019-06-07T09:49:09.004Z,4.60
2019-06-07T09:50:54.119Z,5.17
2019-06-07T09:53:23.782Z,5.13
2019-06-07T09:55:53.365Z,5.00
2019-06-07T10:00:54.245Z,5.00
2019-06-07T10:03:23.811Z,5.43
2019-06-07T10:05:54.047Z,4.40
2019-06-07T10:09:42.306Z,4.30
2019-06-07T10:10:54.922Z,4.03
2019-06-07T10:13:24.511Z,4.80
2019-06-07T10:15:54.155Z,4.90
2019-06-07T10:18:23.728Z,4.00
2019-06-07T10:20:53.318Z,4.30
2019-06-07T10:23:22.888Z,4.60
2019-06-07T10:25:52.465Z,4.73
2019-06-07T10:28:22.096Z,4.63
2019-06-07T10:30:51.651Z,3.23
2019-06-07T10:33:21.235Z,4.07
2019-06-07T10:35:50.840Z,4.40
2019-06-07T10:38:20.550Z,3.97
2019-06-07T10:40:50.139Z,4.53
2019-06-07T10:43:19.714Z,4.83
2019-06-07T10:45:49.292Z,4.23
2019-06-07T10:48:18.858Z,4.17
2019-06-07T10:50:48.454Z,3.80
2019-06-07T10:53:19.088Z,3.70
2019-06-07T10:55:48.669Z,3.43
2019-06-07T10:58:19.395Z,3.70
2019-06-07T11:00:50.066Z,3.37
2019-06-07T11:03:19.655Z,3.63
2019-06-07T11:05:49.254Z,3.83
2019-06-07T11:08:18.823Z,4.60
2019-06-07T11:10:48.400Z,3.90
2019-06-07T11:13:17.984Z,3.60
2019-06-07T11:15:47.559Z,4.03
2019-06-07T11:18:18.800Z,3.40
2019-06-07T11:20:48.493Z,4.27
2019-06-07T11:23:18.589Z,4.43
2019-06-07T11:25:49.342Z,3.50
2019-06-07T11:28:19.008Z,4.03
2019-06-07T11:30:48.576Z,4.47
2019-06-07T11:33:18.884Z,3.70
2019-06-07T11:35:50.149Z,3.77
2019-06-07T11:38:19.728Z,3.97
2019-06-07T11:40:49.297Z,3.87
2019-06-07T11:43:19.166Z,3.57
2019-06-07T11:45:48.730Z,3.77
2019-06-07T11:48:18.344Z,3.50
2019-06-07T11:50:49.159Z,3.57
2019-06-07T11:53:22.269Z,3.17
2019-06-07T11:55:51.858Z,3.40
2019-06-07T11:58:22.043Z,3.27
2019-06-07T12:00:51.638Z,3.20
2019-06-07T12:03:21.218Z,3.43
2019-06-07T12:05:50.801Z,3.03
2019-06-07T12:08:20.374Z,3.27
2019-06-07T12:10:49.965Z,3.07
2019-06-07T12:13:19.552Z,3.10
2019-06-07T12:15:49.412Z,2.90
2019-06-07T12:18:19.630Z,3.27
2019-06-07T12:20:49.384Z,3.60
2019-06-07T12:23:20.181Z,3.00
2019-06-07T12:25:49.820Z,2.97
2019-06-07T12:28:19.387Z,3.40
2019-06-07T12:30:49.046Z,3.40
2019-06-07T12:33:19.701Z,3.27
2019-06-07T12:35:49.363Z,3.40
2019-06-07T12:38:21.051Z,4.70
2019-06-07T12:40:57.464Z,3.40
2019-06-07T12:43:23.651Z,3.23
2019-06-07T12:45:53.229Z,3.93
2019-06-07T12:48:26.059Z,3.70
2019-06-07T12:50:55.238Z,3.00
2019-06-07T12:53:27.930Z,2.93
2019-06-07T12:55:59.884Z,2.80
2019-06-07T12:58:34.733Z,2.45
2019-06-07T13:00:59.805Z,2.30
2019-06-07T13:03:29.490Z,2.40
2019-06-07T13:06:00.624Z,2.10
2019-06-07T13:08:30.185Z,2.33
2019-06-07T13:11:14.071Z,2.00
2019-06-07T13:13:31.071Z,2.08
2019-06-07T13:16:00.643Z,2.27
2019-06-07T13:18:31.347Z,2.30
2019-06-07T13:21:00.936Z,2.27
2019-06-07T13:23:30.518Z,1.90
2019-06-07T13:26:00.092Z,2.00
2019-06-07T13:28:29.667Z,2.00
2019-06-07T13:30:59.329Z,1.95
2019-06-07T13:33:35.492Z,2.27
2019-06-07T13:36:00.198Z,2.15
2019-06-07T13:38:29.826Z,2.10
2019-06-07T13:41:00.426Z,2.00
2019-06-07T13:43:30.014Z,1.60
2019-06-07T13:45:59.579Z,2.10
2019-06-07T13:48:29.159Z,1.75
2019-06-07T13:50:58.814Z,2.00
2019-06-07T13:53:29.656Z,2.10
2019-06-07T13:56:02.578Z,1.85
2019-06-07T13:58:32.165Z,2.10
2019-06-07T14:01:02.513Z,2.02
2019-06-07T14:03:33.951Z,2.15
2019-06-07T14:06:04.419Z,2.12
2019-06-07T14:08:53.338Z,2.33
2019-06-07T14:11:23.657Z,2.05
2019-06-07T14:13:53.611Z,2.05
2019-06-07T14:16:24.300Z,1.90
2019-06-07T14:18:53.970Z,2.40
2019-06-07T14:21:24.597Z,2.40
2019-06-07T14:23:54.192Z,2.47
2019-06-07T14:26:23.781Z,2.20
2019-06-07T14:28:53.626Z,2.00
2019-06-07T14:31:24.531Z,2.20
2019-06-07T14:33:54.586Z,2.17
2019-06-07T14:36:24.797Z,2.08
2019-06-07T14:38:54.510Z,2.40
2019-06-07T14:41:25.176Z,2.20
2019-06-07T14:43:54.851Z,2.10
2019-06-07T14:46:25.668Z,2.45
2019-06-07T14:48:55.286Z,3.17
2019-06-07T14:51:26.235Z,2.30
2019-06-07T14:53:58.392Z,2.20
2019-06-07T14:56:29.564Z,2.10
2019-06-07T14:58:59.174Z,2.37
2019-06-07T15:01:28.754Z,2.20
2019-06-07T15:03:58.405Z,2.33
2019-06-07T15:06:28.591Z,2.25
2019-06-07T15:08:58.349Z,2.60
2019-06-07T15:11:28.934Z,2.40
2019-06-07T15:14:00.843Z,2.55
2019-06-07T15:16:31.937Z,2.52
2019-06-07T15:19:01.665Z,2.42
2019-06-07T15:21:32.889Z,2.72
2019-06-07T15:24:02.473Z,2.12
2019-06-07T15:26:32.494Z,2.37
2019-06-07T15:29:02.147Z,2.50
2019-06-07T15:31:32.119Z,2.30
2019-06-07T15:34:01.793Z,2.20
2019-06-07T15:36:32.332Z,2.20
2019-06-07T15:39:02.030Z,2.33
2019-06-07T15:41:33.094Z,2.52
2019-06-07T15:44:02.758Z,2.80
2019-06-07T15:46:33.671Z,2.37
2019-06-07T15:49:03.439Z,2.52
2019-06-07T15:51:34.573Z,2.72
2019-06-07T15:54:06.220Z,2.80
2019-06-07T15:56:37.004Z,3.02
2019-06-07T15:59:08.892Z,2.98
2019-06-07T16:01:39.554Z,3.17
2019-06-07T16:04:09.246Z,2.90
2019-06-07T16:06:40.415Z,5.40
2019-06-07T16:09:10.276Z,4.55
2019-06-07T16:11:41.509Z,3.30
2019-06-07T16:14:11.170Z,3.67
2019-06-07T16:16:41.371Z,4.43
2019-06-07T16:19:11.121Z,4.20
2019-06-07T16:21:41.492Z,3.50
2019-06-07T16:24:11.057Z,4.00
2019-06-07T16:26:40.719Z,4.57
2019-06-07T16:29:10.298Z,3.97
2019-06-07T16:31:42.729Z,3.93
2019-06-07T16:34:12.372Z,4.10
2019-06-07T16:36:42.298Z,5.70
2019-06-07T16:39:12.025Z,4.30
2019-06-07T16:41:42.838Z,4.93
2019-06-07T16:44:12.446Z,4.67
2019-06-07T16:46:42.894Z,3.90
2019-06-07T16:49:12.588Z,4.03
2019-06-07T16:51:43.249Z,3.53
2019-06-07T16:54:12.909Z,5.77
2019-06-07T16:56:47.325Z,4.00
2019-06-07T16:59:14.934Z,4.00
2019-06-07T17:01:45.293Z,3.70
2019-06-07T17:04:15.000Z,3.77
2019-06-07T17:06:46.291Z,4.37
2019-06-07T17:09:16.008Z,5.00
2019-06-07T17:11:46.420Z,4.33
2019-06-07T17:14:18.265Z,4.27
2019-06-07T17:16:48.735Z,4.50
2019-06-07T17:19:19.157Z,3.57
2019-06-07T17:21:49.569Z,2.83
2019-06-07T17:24:19.242Z,1.90
2019-06-07T17:26:49.708Z,2.17
2019-06-07T17:29:19.371Z,1.70
2019-06-07T17:31:50.275Z,1.63
2019-06-07T17:34:20.071Z,1.40
2019-06-07T17:36:50.691Z,1.60
2019-06-07T17:39:21.638Z,1.70
2019-06-07T17:42:01.410Z,1.30
2019-06-07T17:44:22.518Z,1.37
2019-06-07T17:46:52.102Z,1.33
2019-06-07T17:49:21.673Z,1.17
2019-06-07T17:51:52.284Z,1.13
2019-06-07T17:54:21.905Z,1.10
2019-06-07T17:56:53.295Z,1.13
2019-06-07T17:59:22.783Z,1.07
2019-06-07T18:02:13.279Z,1.10
2019-06-07T18:04:23.677Z,1.37
2019-06-07T18:06:54.481Z,1.17
2019-06-07T18:09:26.703Z,1.30
2019-06-07T18:11:56.270Z,1.10
2019-06-07T18:14:25.918Z,1.30
2019-06-07T18:16:55.484Z,1.13
2019-06-07T18:19:25.073Z,1.10
2019-06-07T18:21:58.967Z,1.20
2019-06-07T18:24:27.879Z,0.93
2019-06-07T18:26:58.815Z,1.10
2019-06-07T18:29:28.521Z,1.27
2019-06-07T18:32:00.217Z,1.50
2019-06-07T18:34:29.395Z,1.40
2019-06-07T18:36:59.328Z,1.10
2019-06-07T18:39:28.941Z,1.17
2019-06-07T18:41:59.469Z,1.00
2019-06-07T18:44:29.136Z,1.10
2019-06-07T18:47:00.290Z,1.10
2019-06-07T18:49:29.866Z,1.67
2019-06-07T18:52:13.193Z,1.47
2019-06-07T18:54:42.758Z,1.20
2019-06-07T18:57:12.627Z,1.00
2019-06-07T18:59:42.310Z,1.10
2019-06-07T19:02:11.922Z,2.47
2019-06-07T19:04:41.492Z,1.63
2019-06-07T19:07:11.090Z,1.40
2019-06-07T19:09:40.674Z,1.40
2019-06-07T19:12:10.351Z,0.90
2019-06-07T19:14:39.934Z,1.20
2019-06-07T19:17:09.505Z,1.20
2019-06-07T19:19:39.516Z,1.63
2019-06-07T19:22:09.174Z,1.30
2019-06-07T19:24:38.863Z,1.30
2019-06-07T19:27:08.547Z,1.10
2019-06-07T19:29:38.132Z,1.23
2019-06-07T19:32:07.708Z,1.30
2019-06-07T19:34:37.312Z,1.10
2019-06-07T19:37:06.905Z,1.23
2019-06-07T19:39:36.508Z,1.40
2019-06-07T19:42:06.161Z,1.20
2019-06-07T19:44:35.765Z,0.93
2019-06-07T19:47:05.361Z,1.30
2019-06-07T19:49:35.034Z,1.50
2019-06-07T19:52:04.720Z,1.70
2019-06-07T19:54:34.309Z,1.50
2019-06-07T19:57:04.021Z,1.70
2019-06-07T19:59:33.593Z,1.53
2019-06-07T20:02:05.587Z,1.30
2019-06-07T20:04:35.162Z,1.27
2019-06-07T20:07:05.742Z,1.03
2019-06-07T20:09:35.616Z,1.47
2019-06-07T20:12:05.718Z,1.10
2019-06-07T20:14:36.930Z,1.60
2019-06-07T20:17:06.660Z,1.20
2019-06-07T20:19:36.233Z,1.67
2019-06-07T20:22:05.996Z,1.10
2019-06-07T20:24:38.009Z,1.13
2019-06-07T20:27:08.619Z,1.60
2019-06-07T20:29:38.285Z,1.50
2019-06-07T20:32:08.895Z,1.20
2019-06-07T20:34:43.788Z,1.70
2019-06-07T20:37:10.886Z,1.40
2019-06-07T20:39:40.479Z,1.60
2019-06-07T20:42:10.117Z,1.90
2019-06-07T20:44:39.690Z,1.40
2019-06-07T20:47:09.298Z,1.57
2019-06-07T20:49:38.878Z,1.60
2019-06-07T20:52:09.924Z,1.80
2019-06-07T20:54:40.632Z,1.60
2019-06-07T20:57:10.218Z,1.33
2019-06-07T20:59:39.795Z,1.57
2019-06-07T21:02:09.738Z,1.10
2019-06-07T21:04:39.351Z,1.57
2019-06-07T21:07:10.176Z,1.27
2019-06-07T21:09:39.869Z,1.17
2019-06-07T21:12:09.961Z,1.17
2019-06-07T21:14:39.563Z,1.20
2019-06-07T21:17:10.308Z,1.50
2019-06-07T21:19:40.067Z,1.10
2019-06-07T21:22:10.941Z,1.30
2019-06-07T21:24:43.458Z,1.30
2019-06-07T21:27:13.041Z,1.37
2019-06-07T21:29:43.403Z,1.37
2019-06-07T21:32:12.992Z,1.40
2019-06-07T21:34:44.237Z,1.33
2019-06-07T21:37:13.881Z,1.20
2019-06-07T21:39:43.539Z,1.60
2019-06-07T21:42:13.124Z,1.10
2019-06-07T21:44:42.722Z,1.20
2019-06-07T21:47:12.763Z,1.40
2019-06-07T21:49:42.389Z,1.20
2019-06-07T21:52:12.920Z,1.20
2019-06-07T21:54:42.604Z,1.00
2019-06-07T21:57:13.166Z,1.30
2019-06-07T21:59:42.870Z,1.10
2019-06-07T22:02:13.634Z,1.20
2019-06-07T22:04:43.551Z,1.17
2019-06-07T22:07:14.494Z,1.00
2019-06-07T22:09:44.149Z,1.40
2019-06-07T22:12:14.280Z,1.30
2019-06-07T22:14:45.006Z,1.00
2019-06-07T22:17:14.609Z,1.10
2019-06-07T22:19:44.166Z,1.10
2019-06-07T22:22:14.897Z,1.03
2019-06-07T22:24:44.511Z,1.40
2019-06-07T22:27:15.563Z,0.80
2019-06-07T22:29:45.348Z,1.37
2019-06-07T22:32:15.032Z,1.10
2019-06-07T22:34:44.587Z,1.07
2019-06-07T22:37:16.420Z,1.30
2019-06-07T22:39:45.541Z,1.17
2019-06-07T22:42:15.321Z,1.10
2019-06-07T22:44:44.881Z,1.03
2019-06-07T22:47:14.458Z,1.03
2019-06-07T22:49:44.042Z,1.10
2019-06-07T22:52:15.346Z,1.20
2019-06-07T22:54:44.927Z,0.90
2019-06-07T22:57:16.702Z,0.90
2019-06-07T22:59:46.431Z,1.27
2019-06-07T23:02:16.704Z,1.23
2019-06-07T23:04:46.465Z,1.40
2019-06-07T23:07:17.115Z,1.20
2019-06-07T23:09:46.746Z,0.90
2019-06-07T23:12:17.606Z,1.23
2019-06-07T23:14:47.282Z,1.20
2019-06-07T23:17:17.883Z,1.00
2019-06-07T23:19:48.923Z,1.07
2019-06-07T23:22:20.171Z,1.40
2019-06-07T23:24:49.828Z,1.13
2019-06-07T23:27:20.653Z,1.10
2019-06-07T23:29:50.286Z,1.00
2019-06-07T23:32:21.466Z,1.03
2019-06-07T23:34:52.895Z,1.20
2019-06-07T23:37:22.443Z,1.20
2019-06-07T23:39:53.351Z,1.20
2019-06-07T23:42:22.901Z,1.00
2019-06-07T23:44:52.490Z,1.10
2019-06-07T23:47:23.810Z,1.10
2019-06-07T23:49:53.342Z,1.17
2019-06-07T23:52:23.192Z,1.30
2019-06-07T23:54:52.769Z,1.20
2019-06-07T23:57:22.731Z,1.10
2019-06-07T23:59:52.429Z,1.03
